sensor_id;sensor_type;location;lat;lon;timestamp;P1;durP1;ratioP1;P2;durP2;ratioP2
705;SDS011;21234;48.690;9.016;2022-12-10T00:01:13;31.43;;;17.27;;
705;SDS011;21234;48.690;9.016;2022-12-10T00:03:41;33.27;;;19.77;;
705;SDS011;21234;48.690;9.016;2022-12-10T00:06:10;27.90;;;18.60;;
705;SDS011;21234;48.690;9.016;2022-12-10T00:08:38;32.23;;;18.30;;
705;SDS011;21234;48.690;9.016;2022-12-10T00:11:06;27.00;;;15.50;;
705;SDS011;21234;48.690;9.016;2022-12-10T00:13:34;27.27;;;18.33;;
705;SDS011;21234;48.690;9.016;2022-12-10T00:16:03;30.80;;;16.60;;
705;SDS011;21234;48.690;9.016;2022-12-10T00:18:31;29.33;;;17.70;;
705;SDS011;21234;48.690;9.016;2022-12-10T00:21:01;35.30;;;18.80;;
705;SDS011;21234;48.690;9.016;2022-12-10T00:23:30;30.90;;;17.63;;
705;SDS011;21234;48.690;9.016;2022-12-10T00:26:01;31.67;;;17.07;;
705;SDS011;21234;48.690;9.016;2022-12-10T00:28:29;31.40;;;18.00;;
705;SDS011;21234;48.690;9.016;2022-12-10T00:31:01;32.07;;;16.63;;
705;SDS011;21234;48.690;9.016;2022-12-10T00:33:28;26.13;;;17.03;;
705;SDS011;21234;48.690;9.016;2022-12-10T00:35:55;28.83;;;18.50;;
705;SDS011;21234;48.690;9.016;2022-12-10T00:38:22;24.03;;;16.67;;
705;SDS011;21234;48.690;9.016;2022-12-10T00:40:50;31.40;;;18.77;;
705;SDS011;21234;48.690;9.016;2022-12-10T00:43:16;29.77;;;17.83;;
705;SDS011;21234;48.690;9.016;2022-12-10T00:45:43;31.90;;;18.03;;
705;SDS011;21234;48.690;9.016;2022-12-10T00:48:10;32.57;;;19.40;;
705;SDS011;21234;48.690;9.016;2022-12-10T00:50:36;33.03;;;19.07;;
705;SDS011;21234;48.690;9.016;2022-12-10T00:53:03;23.93;;;16.07;;
705;SDS011;21234;48.690;9.016;2022-12-10T00:55:30;27.10;;;16.87;;
705;SDS011;21234;48.690;9.016;2022-12-10T00:57:58;25.80;;;17.60;;
705;SDS011;21234;48.690;9.016;2022-12-10T01:00:24;25.53;;;17.93;;
705;SDS011;21234;48.690;9.016;2022-12-10T01:02:51;34.87;;;18.63;;
705;SDS011;21234;48.690;9.016;2022-12-10T01:05:19;23.50;;;16.63;;
705;SDS011;21234;48.690;9.016;2022-12-10T01:07:45;28.77;;;17.13;;
705;SDS011;21234;48.690;9.016;2022-12-10T01:10:12;25.93;;;15.73;;
705;SDS011;21234;48.690;9.016;2022-12-10T01:12:39;27.23;;;17.17;;
705;SDS011;21234;48.690;9.016;2022-12-10T01:15:07;30.67;;;19.60;;
705;SDS011;21234;48.690;9.016;2022-12-10T01:17:34;26.97;;;18.40;;
705;SDS011;21234;48.690;9.016;2022-12-10T01:20:01;28.63;;;18.90;;
705;SDS011;21234;48.690;9.016;2022-12-10T01:22:28;30.93;;;18.03;;
705;SDS011;21234;48.690;9.016;2022-12-10T01:24:54;24.77;;;16.17;;
705;SDS011;21234;48.690;9.016;2022-12-10T01:27:21;25.57;;;15.50;;
705;SDS011;21234;48.690;9.016;2022-12-10T01:29:48;24.20;;;17.20;;
705;SDS011;21234;48.690;9.016;2022-12-10T01:32:16;27.37;;;16.67;;
705;SDS011;21234;48.690;9.016;2022-12-10T01:34:42;32.07;;;18.37;;
705;SDS011;21234;48.690;9.016;2022-12-10T01:37:09;24.87;;;15.77;;
705;SDS011;21234;48.690;9.016;2022-12-10T01:39:36;35.97;;;17.70;;
705;SDS011;21234;48.690;9.016;2022-12-10T01:42:04;26.57;;;16.83;;
705;SDS011;21234;48.690;9.016;2022-12-10T01:47:29;25.73;;;16.53;;
705;SDS011;21234;48.690;9.016;2022-12-10T01:49:56;36.47;;;18.73;;
705;SDS011;21234;48.690;9.016;2022-12-10T01:52:23;30.83;;;17.30;;
705;SDS011;21234;48.690;9.016;2022-12-10T01:54:50;32.53;;;18.03;;
705;SDS011;21234;48.690;9.016;2022-12-10T01:57:17;26.07;;;14.53;;
705;SDS011;21234;48.690;9.016;2022-12-10T01:59:47;25.83;;;16.80;;
705;SDS011;21234;48.690;9.016;2022-12-10T02:02:17;27.67;;;16.53;;
705;SDS011;21234;48.690;9.016;2022-12-10T02:04:54;26.10;;;16.90;;
705;SDS011;21234;48.690;9.016;2022-12-10T02:07:32;23.67;;;17.20;;
705;SDS011;21234;48.690;9.016;2022-12-10T02:10:11;25.47;;;15.93;;
705;SDS011;21234;48.690;9.016;2022-12-10T02:12:47;25.67;;;15.97;;
705;SDS011;21234;48.690;9.016;2022-12-10T02:15:18;27.17;;;17.53;;
705;SDS011;21234;48.690;9.016;2022-12-10T02:17:48;25.80;;;17.00;;
705;SDS011;21234;48.690;9.016;2022-12-10T02:20:22;26.37;;;16.10;;
705;SDS011;21234;48.690;9.016;2022-12-10T02:22:53;24.43;;;17.20;;
705;SDS011;21234;48.690;9.016;2022-12-10T02:25:24;27.20;;;16.17;;
705;SDS011;21234;48.690;9.016;2022-12-10T02:28:01;22.27;;;15.57;;
705;SDS011;21234;48.690;9.016;2022-12-10T02:30:33;28.60;;;16.43;;
705;SDS011;21234;48.690;9.016;2022-12-10T02:33:02;28.07;;;15.87;;
705;SDS011;21234;48.690;9.016;2022-12-10T02:35:31;26.13;;;17.60;;
705;SDS011;21234;48.690;9.016;2022-12-10T02:38:07;23.10;;;15.77;;
705;SDS011;21234;48.690;9.016;2022-12-10T02:40:38;25.03;;;15.63;;
705;SDS011;21234;48.690;9.016;2022-12-10T02:43:10;28.00;;;18.10;;
705;SDS011;21234;48.690;9.016;2022-12-10T02:45:40;23.20;;;15.90;;
705;SDS011;21234;48.690;9.016;2022-12-10T02:48:08;27.27;;;17.47;;
705;SDS011;21234;48.690;9.016;2022-12-10T02:50:56;28.60;;;16.30;;
705;SDS011;21234;48.690;9.016;2022-12-10T02:53:22;25.10;;;16.80;;
705;SDS011;21234;48.690;9.016;2022-12-10T02:55:59;26.77;;;17.50;;
705;SDS011;21234;48.690;9.016;2022-12-10T02:58:39;26.60;;;14.83;;
705;SDS011;21234;48.690;9.016;2022-12-10T03:01:16;26.87;;;17.33;;
705;SDS011;21234;48.690;9.016;2022-12-10T03:03:52;25.00;;;17.60;;
705;SDS011;21234;48.690;9.016;2022-12-10T03:06:25;29.47;;;16.80;;
705;SDS011;21234;48.690;9.016;2022-12-10T03:08:58;27.23;;;16.60;;
705;SDS011;21234;48.690;9.016;2022-12-10T03:11:27;26.37;;;17.13;;
705;SDS011;21234;48.690;9.016;2022-12-10T03:13:55;23.97;;;15.60;;
705;SDS011;21234;48.690;9.016;2022-12-10T03:16:28;26.50;;;16.40;;
705;SDS011;21234;48.690;9.016;2022-12-10T03:19:00;23.50;;;15.93;;
705;SDS011;21234;48.690;9.016;2022-12-10T03:21:29;31.60;;;16.90;;
705;SDS011;21234;48.690;9.016;2022-12-10T03:23:59;27.43;;;16.47;;
705;SDS011;21234;48.690;9.016;2022-12-10T03:26:26;25.43;;;16.13;;
705;SDS011;21234;48.690;9.016;2022-12-10T03:28:54;29.77;;;15.90;;
705;SDS011;21234;48.690;9.016;2022-12-10T03:31:29;27.03;;;16.70;;
705;SDS011;21234;48.690;9.016;2022-12-10T03:33:57;27.30;;;16.90;;
705;SDS011;21234;48.690;9.016;2022-12-10T03:36:24;25.10;;;15.20;;
705;SDS011;21234;48.690;9.016;2022-12-10T03:38:52;28.70;;;15.50;;
705;SDS011;21234;48.690;9.016;2022-12-10T03:41:19;29.20;;;15.23;;
705;SDS011;21234;48.690;9.016;2022-12-10T03:43:50;29.07;;;17.50;;
705;SDS011;21234;48.690;9.016;2022-12-10T03:46:18;22.47;;;15.20;;
705;SDS011;21234;48.690;9.016;2022-12-10T03:48:46;25.83;;;15.67;;
705;SDS011;21234;48.690;9.016;2022-12-10T03:51:13;29.20;;;15.50;;
705;SDS011;21234;48.690;9.016;2022-12-10T03:53:40;26.40;;;16.27;;
705;SDS011;21234;48.690;9.016;2022-12-10T03:56:07;25.60;;;15.13;;
705;SDS011;21234;48.690;9.016;2022-12-10T03:58:33;22.93;;;14.17;;
705;SDS011;21234;48.690;9.016;2022-12-10T04:01:00;27.00;;;18.00;;
705;SDS011;21234;48.690;9.016;2022-12-10T04:03:27;31.33;;;17.33;;
705;SDS011;21234;48.690;9.016;2022-12-10T04:06:00;21.97;;;15.27;;
705;SDS011;21234;48.690;9.016;2022-12-10T04:08:27;27.33;;;16.30;;
705;SDS011;21234;48.690;9.016;2022-12-10T04:10:54;24.20;;;16.17;;
705;SDS011;21234;48.690;9.016;2022-12-10T04:13:20;24.50;;;16.13;;
705;SDS011;21234;48.690;9.016;2022-12-10T04:16:05;27.47;;;17.17;;
705;SDS011;21234;48.690;9.016;2022-12-10T04:18:49;23.73;;;15.40;;
705;SDS011;21234;48.690;9.016;2022-12-10T04:21:18;25.00;;;15.37;;
705;SDS011;21234;48.690;9.016;2022-12-10T04:24:02;24.73;;;16.40;;
705;SDS011;21234;48.690;9.016;2022-12-10T04:26:46;24.23;;;15.63;;
705;SDS011;21234;48.690;9.016;2022-12-10T04:29:20;25.23;;;16.00;;
705;SDS011;21234;48.690;9.016;2022-12-10T04:31:47;20.03;;;13.27;;
705;SDS011;21234;48.690;9.016;2022-12-10T04:34:14;26.33;;;14.60;;
705;SDS011;21234;48.690;9.016;2022-12-10T04:36:42;24.00;;;15.77;;
705;SDS011;21234;48.690;9.016;2022-12-10T04:39:09;25.90;;;15.73;;
705;SDS011;21234;48.690;9.016;2022-12-10T04:41:37;25.73;;;16.40;;
705;SDS011;21234;48.690;9.016;2022-12-10T04:44:05;30.67;;;16.67;;
705;SDS011;21234;48.690;9.016;2022-12-10T04:46:31;27.40;;;16.60;;
705;SDS011;21234;48.690;9.016;2022-12-10T04:48:58;27.50;;;16.67;;
705;SDS011;21234;48.690;9.016;2022-12-10T04:51:25;31.03;;;16.53;;
705;SDS011;21234;48.690;9.016;2022-12-10T04:53:53;29.07;;;16.00;;
705;SDS011;21234;48.690;9.016;2022-12-10T04:56:20;26.47;;;15.93;;
705;SDS011;21234;48.690;9.016;2022-12-10T04:58:46;27.60;;;17.13;;
705;SDS011;21234;48.690;9.016;2022-12-10T05:01:13;17.70;;;13.73;;
705;SDS011;21234;48.690;9.016;2022-12-10T05:03:40;25.40;;;15.30;;
705;SDS011;21234;48.690;9.016;2022-12-10T05:06:08;30.90;;;16.43;;
705;SDS011;21234;48.690;9.016;2022-12-10T05:08:36;25.70;;;16.43;;
705;SDS011;21234;48.690;9.016;2022-12-10T05:11:05;27.50;;;16.00;;
705;SDS011;21234;48.690;9.016;2022-12-10T05:13:34;28.37;;;16.40;;
705;SDS011;21234;48.690;9.016;2022-12-10T05:16:01;24.13;;;15.53;;
705;SDS011;21234;48.690;9.016;2022-12-10T05:18:28;27.17;;;15.60;;
705;SDS011;21234;48.690;9.016;2022-12-10T05:20:57;21.63;;;14.60;;
705;SDS011;21234;48.690;9.016;2022-12-10T05:23:24;24.70;;;16.23;;
705;SDS011;21234;48.690;9.016;2022-12-10T05:25:57;26.77;;;15.20;;
705;SDS011;21234;48.690;9.016;2022-12-10T05:28:26;19.43;;;16.53;;
705;SDS011;21234;48.690;9.016;2022-12-10T05:30:53;26.60;;;15.37;;
705;SDS011;21234;48.690;9.016;2022-12-10T05:33:20;24.33;;;15.17;;
705;SDS011;21234;48.690;9.016;2022-12-10T05:35:54;21.30;;;14.20;;
705;SDS011;21234;48.690;9.016;2022-12-10T05:38:21;24.20;;;15.90;;
705;SDS011;21234;48.690;9.016;2022-12-10T05:40:49;23.50;;;14.23;;
705;SDS011;21234;48.690;9.016;2022-12-10T05:43:16;26.37;;;16.43;;
705;SDS011;21234;48.690;9.016;2022-12-10T05:45:44;22.20;;;14.53;;
705;SDS011;21234;48.690;9.016;2022-12-10T05:48:12;18.83;;;13.63;;
705;SDS011;21234;48.690;9.016;2022-12-10T05:50:41;20.90;;;14.40;;
705;SDS011;21234;48.690;9.016;2022-12-10T05:53:08;25.40;;;15.17;;
705;SDS011;21234;48.690;9.016;2022-12-10T05:55:35;29.00;;;15.33;;
705;SDS011;21234;48.690;9.016;2022-12-10T05:58:02;26.37;;;16.23;;
705;SDS011;21234;48.690;9.016;2022-12-10T06:00:29;27.80;;;14.63;;
705;SDS011;21234;48.690;9.016;2022-12-10T06:02:57;26.93;;;16.40;;
705;SDS011;21234;48.690;9.016;2022-12-10T06:05:24;27.87;;;15.77;;
705;SDS011;21234;48.690;9.016;2022-12-10T06:07:51;21.43;;;14.60;;
705;SDS011;21234;48.690;9.016;2022-12-10T06:10:17;25.90;;;14.80;;
705;SDS011;21234;48.690;9.016;2022-12-10T06:12:44;21.30;;;14.57;;
705;SDS011;21234;48.690;9.016;2022-12-10T06:15:11;23.90;;;14.83;;
705;SDS011;21234;48.690;9.016;2022-12-10T06:17:38;22.67;;;15.53;;
705;SDS011;21234;48.690;9.016;2022-12-10T06:20:07;23.47;;;16.83;;
705;SDS011;21234;48.690;9.016;2022-12-10T06:22:34;23.80;;;15.30;;
705;SDS011;21234;48.690;9.016;2022-12-10T06:25:01;21.83;;;13.80;;
705;SDS011;21234;48.690;9.016;2022-12-10T06:27:29;24.30;;;15.13;;
705;SDS011;21234;48.690;9.016;2022-12-10T06:29:56;24.13;;;15.00;;
705;SDS011;21234;48.690;9.016;2022-12-10T06:32:23;24.03;;;16.30;;
705;SDS011;21234;48.690;9.016;2022-12-10T06:34:50;27.93;;;17.07;;
705;SDS011;21234;48.690;9.016;2022-12-10T06:37:18;24.10;;;15.70;;
705;SDS011;21234;48.690;9.016;2022-12-10T06:39:45;22.83;;;15.93;;
705;SDS011;21234;48.690;9.016;2022-12-10T06:42:11;24.20;;;16.30;;
705;SDS011;21234;48.690;9.016;2022-12-10T06:44:39;31.90;;;17.47;;
705;SDS011;21234;48.690;9.016;2022-12-10T06:47:05;24.40;;;15.50;;
705;SDS011;21234;48.690;9.016;2022-12-10T06:49:32;27.63;;;15.37;;
705;SDS011;21234;48.690;9.016;2022-12-10T06:51:59;27.30;;;16.33;;
705;SDS011;21234;48.690;9.016;2022-12-10T06:54:27;24.10;;;16.40;;
705;SDS011;21234;48.690;9.016;2022-12-10T06:56:54;26.13;;;16.97;;
705;SDS011;21234;48.690;9.016;2022-12-10T06:59:20;28.20;;;15.17;;
705;SDS011;21234;48.690;9.016;2022-12-10T07:01:47;31.70;;;17.47;;
705;SDS011;21234;48.690;9.016;2022-12-10T07:04:14;23.37;;;15.67;;
705;SDS011;21234;48.690;9.016;2022-12-10T07:06:41;25.73;;;16.00;;
705;SDS011;21234;48.690;9.016;2022-12-10T07:09:08;27.60;;;16.53;;
705;SDS011;21234;48.690;9.016;2022-12-10T07:11:37;26.77;;;17.13;;
705;SDS011;21234;48.690;9.016;2022-12-10T07:14:04;25.13;;;16.43;;
705;SDS011;21234;48.690;9.016;2022-12-10T07:16:31;24.60;;;17.50;;
705;SDS011;21234;48.690;9.016;2022-12-10T07:18:59;28.67;;;17.03;;
705;SDS011;21234;48.690;9.016;2022-12-10T07:21:28;25.63;;;17.20;;
705;SDS011;21234;48.690;9.016;2022-12-10T07:23:57;26.20;;;15.70;;
705;SDS011;21234;48.690;9.016;2022-12-10T07:26:27;22.00;;;14.73;;
705;SDS011;21234;48.690;9.016;2022-12-10T07:28:57;23.20;;;15.60;;
705;SDS011;21234;48.690;9.016;2022-12-10T07:31:25;26.30;;;16.33;;
705;SDS011;21234;48.690;9.016;2022-12-10T07:33:53;26.97;;;16.30;;
705;SDS011;21234;48.690;9.016;2022-12-10T07:36:21;26.37;;;15.97;;
705;SDS011;21234;48.690;9.016;2022-12-10T07:38:48;27.87;;;16.40;;
705;SDS011;21234;48.690;9.016;2022-12-10T07:41:15;28.97;;;16.60;;
705;SDS011;21234;48.690;9.016;2022-12-10T07:43:43;27.40;;;17.50;;
705;SDS011;21234;48.690;9.016;2022-12-10T07:46:13;29.67;;;16.63;;
705;SDS011;21234;48.690;9.016;2022-12-10T07:48:43;23.90;;;15.87;;
705;SDS011;21234;48.690;9.016;2022-12-10T07:51:11;22.10;;;14.73;;
705;SDS011;21234;48.690;9.016;2022-12-10T07:53:38;23.13;;;14.10;;
705;SDS011;21234;48.690;9.016;2022-12-10T07:56:06;28.80;;;17.50;;
705;SDS011;21234;48.690;9.016;2022-12-10T07:58:33;24.60;;;16.60;;
705;SDS011;21234;48.690;9.016;2022-12-10T08:01:05;30.80;;;18.60;;
705;SDS011;21234;48.690;9.016;2022-12-10T08:03:33;24.80;;;15.53;;
705;SDS011;21234;48.690;9.016;2022-12-10T08:06:01;29.20;;;17.90;;
705;SDS011;21234;48.690;9.016;2022-12-10T08:08:28;21.33;;;14.97;;
705;SDS011;21234;48.690;9.016;2022-12-10T08:10:55;22.40;;;16.43;;
705;SDS011;21234;48.690;9.016;2022-12-10T08:13:21;24.20;;;15.00;;
705;SDS011;21234;48.690;9.016;2022-12-10T08:15:48;24.87;;;15.50;;
705;SDS011;21234;48.690;9.016;2022-12-10T08:18:14;24.37;;;15.47;;
705;SDS011;21234;48.690;9.016;2022-12-10T08:20:42;31.50;;;15.97;;
705;SDS011;21234;48.690;9.016;2022-12-10T08:23:09;29.83;;;15.67;;
705;SDS011;21234;48.690;9.016;2022-12-10T08:25:36;22.57;;;15.70;;
705;SDS011;21234;48.690;9.016;2022-12-10T08:28:03;26.57;;;16.10;;
705;SDS011;21234;48.690;9.016;2022-12-10T08:30:30;29.87;;;16.77;;
705;SDS011;21234;48.690;9.016;2022-12-10T08:32:57;23.87;;;15.67;;
705;SDS011;21234;48.690;9.016;2022-12-10T08:35:23;21.87;;;14.37;;
705;SDS011;21234;48.690;9.016;2022-12-10T08:37:52;26.73;;;15.23;;
705;SDS011;21234;48.690;9.016;2022-12-10T08:40:18;24.57;;;16.40;;
705;SDS011;21234;48.690;9.016;2022-12-10T08:42:45;24.43;;;15.97;;
705;SDS011;21234;48.690;9.016;2022-12-10T08:45:12;30.50;;;15.63;;
705;SDS011;21234;48.690;9.016;2022-12-10T08:47:38;26.60;;;15.47;;
705;SDS011;21234;48.690;9.016;2022-12-10T08:50:05;24.40;;;16.83;;
705;SDS011;21234;48.690;9.016;2022-12-10T08:52:32;21.70;;;14.27;;
705;SDS011;21234;48.690;9.016;2022-12-10T08:55:00;29.00;;;16.93;;
705;SDS011;21234;48.690;9.016;2022-12-10T08:57:27;28.30;;;16.23;;
705;SDS011;21234;48.690;9.016;2022-12-10T08:59:54;24.77;;;15.23;;
705;SDS011;21234;48.690;9.016;2022-12-10T09:02:21;24.37;;;16.20;;
705;SDS011;21234;48.690;9.016;2022-12-10T09:04:49;25.37;;;16.17;;
705;SDS011;21234;48.690;9.016;2022-12-10T09:07:16;23.67;;;16.33;;
705;SDS011;21234;48.690;9.016;2022-12-10T09:09:43;24.30;;;14.10;;
705;SDS011;21234;48.690;9.016;2022-12-10T09:12:11;27.47;;;14.40;;
705;SDS011;21234;48.690;9.016;2022-12-10T09:14:37;25.70;;;16.07;;
705;SDS011;21234;48.690;9.016;2022-12-10T09:17:05;28.70;;;14.53;;
705;SDS011;21234;48.690;9.016;2022-12-10T09:19:32;28.20;;;15.73;;
705;SDS011;21234;48.690;9.016;2022-12-10T09:21:59;25.27;;;15.70;;
705;SDS011;21234;48.690;9.016;2022-12-10T09:24:25;30.00;;;16.60;;
705;SDS011;21234;48.690;9.016;2022-12-10T09:26:53;27.10;;;15.60;;
705;SDS011;21234;48.690;9.016;2022-12-10T09:29:21;21.53;;;14.93;;
705;SDS011;21234;48.690;9.016;2022-12-10T09:31:49;28.27;;;17.50;;
705;SDS011;21234;48.690;9.016;2022-12-10T09:34:16;24.20;;;15.10;;
705;SDS011;21234;48.690;9.016;2022-12-10T09:36:43;24.30;;;14.53;;
705;SDS011;21234;48.690;9.016;2022-12-10T09:39:10;24.70;;;15.50;;
705;SDS011;21234;48.690;9.016;2022-12-10T09:41:43;23.00;;;16.90;;
705;SDS011;21234;48.690;9.016;2022-12-10T09:44:27;24.77;;;15.20;;
705;SDS011;21234;48.690;9.016;2022-12-10T09:47:04;26.47;;;16.80;;
705;SDS011;21234;48.690;9.016;2022-12-10T09:49:42;29.20;;;15.70;;
705;SDS011;21234;48.690;9.016;2022-12-10T09:52:20;24.80;;;15.93;;
705;SDS011;21234;48.690;9.016;2022-12-10T09:54:49;25.13;;;15.47;;
705;SDS011;21234;48.690;9.016;2022-12-10T09:57:21;23.40;;;15.70;;
705;SDS011;21234;48.690;9.016;2022-12-10T09:59:56;29.20;;;17.23;;
705;SDS011;21234;48.690;9.016;2022-12-10T10:02:28;26.30;;;15.33;;
705;SDS011;21234;48.690;9.016;2022-12-10T10:04:58;28.73;;;14.90;;
705;SDS011;21234;48.690;9.016;2022-12-10T10:07:33;27.13;;;18.03;;
705;SDS011;21234;48.690;9.016;2022-12-10T10:10:04;26.63;;;17.10;;
705;SDS011;21234;48.690;9.016;2022-12-10T10:12:33;24.50;;;15.50;;
705;SDS011;21234;48.690;9.016;2022-12-10T10:15:09;24.57;;;16.47;;
705;SDS011;21234;48.690;9.016;2022-12-10T10:17:38;24.23;;;15.17;;
705;SDS011;21234;48.690;9.016;2022-12-10T10:20:10;30.40;;;18.27;;
705;SDS011;21234;48.690;9.016;2022-12-10T10:22:37;29.93;;;17.60;;
705;SDS011;21234;48.690;9.016;2022-12-10T10:25:04;29.03;;;17.17;;
705;SDS011;21234;48.690;9.016;2022-12-10T10:27:32;31.83;;;16.97;;
705;SDS011;21234;48.690;9.016;2022-12-10T10:30:00;23.70;;;16.40;;
705;SDS011;21234;48.690;9.016;2022-12-10T10:32:45;32.37;;;17.33;;
705;SDS011;21234;48.690;9.016;2022-12-10T10:35:19;23.83;;;18.30;;
705;SDS011;21234;48.690;9.016;2022-12-10T10:37:49;26.50;;;16.37;;
705;SDS011;21234;48.690;9.016;2022-12-10T10:40:21;23.97;;;15.70;;
705;SDS011;21234;48.690;9.016;2022-12-10T10:42:51;21.63;;;14.50;;
705;SDS011;21234;48.690;9.016;2022-12-10T10:45:30;21.07;;;12.60;;
705;SDS011;21234;48.690;9.016;2022-12-10T10:48:04;24.93;;;15.60;;
705;SDS011;21234;48.690;9.016;2022-12-10T10:50:36;21.97;;;15.40;;
705;SDS011;21234;48.690;9.016;2022-12-10T10:53:19;29.10;;;16.80;;
705;SDS011;21234;48.690;9.016;2022-12-10T10:55:51;25.30;;;14.53;;
705;SDS011;21234;48.690;9.016;2022-12-10T10:58:20;25.40;;;14.77;;
705;SDS011;21234;48.690;9.016;2022-12-10T11:00:55;22.73;;;15.33;;
705;SDS011;21234;48.690;9.016;2022-12-10T11:03:26;20.57;;;15.03;;
705;SDS011;21234;48.690;9.016;2022-12-10T11:05:55;31.63;;;17.17;;
705;SDS011;21234;48.690;9.016;2022-12-10T11:08:24;23.17;;;14.13;;
705;SDS011;21234;48.690;9.016;2022-12-10T11:10:55;24.33;;;15.83;;
705;SDS011;21234;48.690;9.016;2022-12-10T11:13:27;21.80;;;15.23;;
705;SDS011;21234;48.690;9.016;2022-12-10T11:15:56;23.00;;;14.60;;
705;SDS011;21234;48.690;9.016;2022-12-10T11:18:30;25.60;;;16.17;;
705;SDS011;21234;48.690;9.016;2022-12-10T11:23:47;26.67;;;15.30;;
705;SDS011;21234;48.690;9.016;2022-12-10T11:29:16;23.10;;;14.00;;
705;SDS011;21234;48.690;9.016;2022-12-10T11:31:57;19.93;;;14.40;;
705;SDS011;21234;48.690;9.016;2022-12-10T11:34:39;22.90;;;13.90;;
705;SDS011;21234;48.690;9.016;2022-12-10T11:37:17;24.00;;;15.77;;
705;SDS011;21234;48.690;9.016;2022-12-10T11:39:57;23.57;;;13.43;;
705;SDS011;21234;48.690;9.016;2022-12-10T11:42:43;19.67;;;12.40;;
705;SDS011;21234;48.690;9.016;2022-12-10T11:45:19;20.17;;;12.73;;
705;SDS011;21234;48.690;9.016;2022-12-10T11:47:54;18.83;;;12.63;;
705;SDS011;21234;48.690;9.016;2022-12-10T11:50:35;23.40;;;15.30;;
705;SDS011;21234;48.690;9.016;2022-12-10T11:53:12;19.27;;;13.10;;
705;SDS011;21234;48.690;9.016;2022-12-10T11:55:54;20.90;;;13.40;;
705;SDS011;21234;48.690;9.016;2022-12-10T11:58:33;19.80;;;12.40;;
705;SDS011;21234;48.690;9.016;2022-12-10T12:01:13;20.90;;;13.90;;
705;SDS011;21234;48.690;9.016;2022-12-10T12:03:55;19.50;;;12.57;;
705;SDS011;21234;48.690;9.016;2022-12-10T12:06:38;25.27;;;13.40;;
705;SDS011;21234;48.690;9.016;2022-12-10T12:09:20;19.90;;;13.20;;
705;SDS011;21234;48.690;9.016;2022-12-10T12:11:55;20.10;;;12.90;;
705;SDS011;21234;48.690;9.016;2022-12-10T12:14:31;16.60;;;11.43;;
705;SDS011;21234;48.690;9.016;2022-12-10T12:17:02;19.00;;;12.43;;
705;SDS011;21234;48.690;9.016;2022-12-10T12:19:34;17.70;;;11.60;;
705;SDS011;21234;48.690;9.016;2022-12-10T12:22:21;20.43;;;12.70;;
705;SDS011;21234;48.690;9.016;2022-12-10T12:24:50;21.43;;;12.77;;
705;SDS011;21234;48.690;9.016;2022-12-10T12:27:22;21.50;;;12.70;;
705;SDS011;21234;48.690;9.016;2022-12-10T12:30:00;15.70;;;11.20;;
705;SDS011;21234;48.690;9.016;2022-12-10T12:32:32;19.13;;;12.40;;
705;SDS011;21234;48.690;9.016;2022-12-10T12:35:10;14.17;;;10.93;;
705;SDS011;21234;48.690;9.016;2022-12-10T12:37:44;17.70;;;11.20;;
705;SDS011;21234;48.690;9.016;2022-12-10T12:40:15;15.87;;;10.97;;
705;SDS011;21234;48.690;9.016;2022-12-10T12:42:53;17.80;;;11.57;;
705;SDS011;21234;48.690;9.016;2022-12-10T12:45:24;14.73;;;10.70;;
705;SDS011;21234;48.690;9.016;2022-12-10T12:48:00;14.83;;;10.87;;
705;SDS011;21234;48.690;9.016;2022-12-10T12:50:36;15.27;;;10.50;;
705;SDS011;21234;48.690;9.016;2022-12-10T12:53:09;17.60;;;11.30;;
705;SDS011;21234;48.690;9.016;2022-12-10T12:55:39;17.47;;;11.67;;
705;SDS011;21234;48.690;9.016;2022-12-10T12:58:19;15.80;;;9.87;;
705;SDS011;21234;48.690;9.016;2022-12-10T13:00:54;16.77;;;10.40;;
705;SDS011;21234;48.690;9.016;2022-12-10T13:03:28;19.70;;;11.43;;
705;SDS011;21234;48.690;9.016;2022-12-10T13:06:14;18.00;;;10.60;;
705;SDS011;21234;48.690;9.016;2022-12-10T13:08:44;19.07;;;10.10;;
705;SDS011;21234;48.690;9.016;2022-12-10T13:11:18;17.30;;;11.33;;
705;SDS011;21234;48.690;9.016;2022-12-10T13:14:09;22.60;;;12.73;;
705;SDS011;21234;48.690;9.016;2022-12-10T13:16:48;18.30;;;11.90;;
705;SDS011;21234;48.690;9.016;2022-12-10T13:19:26;18.00;;;12.53;;
705;SDS011;21234;48.690;9.016;2022-12-10T13:25:06;19.93;;;12.07;;
705;SDS011;21234;48.690;9.016;2022-12-10T13:27:38;17.67;;;11.30;;
705;SDS011;21234;48.690;9.016;2022-12-10T13:30:31;17.50;;;10.27;;
705;SDS011;21234;48.690;9.016;2022-12-10T13:33:12;15.90;;;11.20;;
705;SDS011;21234;48.690;9.016;2022-12-10T13:35:43;17.50;;;11.37;;
705;SDS011;21234;48.690;9.016;2022-12-10T13:38:21;16.47;;;11.27;;
705;SDS011;21234;48.690;9.016;2022-12-10T13:41:00;16.77;;;10.50;;
705;SDS011;21234;48.690;9.016;2022-12-10T13:43:53;19.10;;;11.50;;
705;SDS011;21234;48.690;9.016;2022-12-10T13:46:53;18.17;;;11.23;;
705;SDS011;21234;48.690;9.016;2022-12-10T13:49:22;16.73;;;10.87;;
705;SDS011;21234;48.690;9.016;2022-12-10T13:51:52;22.07;;;13.10;;
705;SDS011;21234;48.690;9.016;2022-12-10T13:57:30;21.17;;;11.30;;
705;SDS011;21234;48.690;9.016;2022-12-10T14:00:10;25.37;;;12.40;;
705;SDS011;21234;48.690;9.016;2022-12-10T14:02:50;17.93;;;11.67;;
705;SDS011;21234;48.690;9.016;2022-12-10T14:08:22;20.60;;;12.70;;
705;SDS011;21234;48.690;9.016;2022-12-10T14:10:53;19.27;;;13.37;;
705;SDS011;21234;48.690;9.016;2022-12-10T14:13:24;24.77;;;12.43;;
705;SDS011;21234;48.690;9.016;2022-12-10T14:15:58;19.63;;;11.50;;
705;SDS011;21234;48.690;9.016;2022-12-10T14:18:28;20.37;;;12.27;;
705;SDS011;21234;48.690;9.016;2022-12-10T14:20:55;19.17;;;11.43;;
705;SDS011;21234;48.690;9.016;2022-12-10T14:23:26;22.23;;;11.63;;
705;SDS011;21234;48.690;9.016;2022-12-10T14:26:03;18.30;;;11.43;;
705;SDS011;21234;48.690;9.016;2022-12-10T14:28:32;18.30;;;11.53;;
705;SDS011;21234;48.690;9.016;2022-12-10T14:31:05;20.37;;;12.37;;
705;SDS011;21234;48.690;9.016;2022-12-10T14:33:36;22.10;;;12.50;;
705;SDS011;21234;48.690;9.016;2022-12-10T14:36:03;20.47;;;14.07;;
705;SDS011;21234;48.690;9.016;2022-12-10T14:38:31;16.93;;;13.30;;
705;SDS011;21234;48.690;9.016;2022-12-10T14:41:00;21.80;;;12.73;;
705;SDS011;21234;48.690;9.016;2022-12-10T14:43:30;21.80;;;12.40;;
705;SDS011;21234;48.690;9.016;2022-12-10T14:46:03;23.07;;;11.80;;
705;SDS011;21234;48.690;9.016;2022-12-10T14:48:38;27.30;;;14.03;;
705;SDS011;21234;48.690;9.016;2022-12-10T14:51:08;15.50;;;11.13;;
705;SDS011;21234;48.690;9.016;2022-12-10T14:53:39;20.20;;;12.87;;
705;SDS011;21234;48.690;9.016;2022-12-10T14:56:06;15.03;;;8.70;;
705;SDS011;21234;48.690;9.016;2022-12-10T14:58:37;19.70;;;12.43;;
705;SDS011;21234;48.690;9.016;2022-12-10T15:01:05;20.50;;;12.17;;
705;SDS011;21234;48.690;9.016;2022-12-10T15:03:39;20.93;;;12.27;;
705;SDS011;21234;48.690;9.016;2022-12-10T15:06:12;20.73;;;12.67;;
705;SDS011;21234;48.690;9.016;2022-12-10T15:08:42;24.27;;;12.00;;
705;SDS011;21234;48.690;9.016;2022-12-10T15:11:10;14.80;;;8.93;;
705;SDS011;21234;48.690;9.016;2022-12-10T15:13:43;16.90;;;10.40;;
705;SDS011;21234;48.690;9.016;2022-12-10T15:16:15;17.17;;;11.60;;
705;SDS011;21234;48.690;9.016;2022-12-10T15:18:43;21.10;;;11.93;;
705;SDS011;21234;48.690;9.016;2022-12-10T15:21:11;21.50;;;11.37;;
705;SDS011;21234;48.690;9.016;2022-12-10T15:23:42;19.77;;;11.53;;
705;SDS011;21234;48.690;9.016;2022-12-10T15:26:20;20.83;;;12.70;;